Low temp

Not for real navigation. The accuracy of this data is not assured See disclaimer for more information



ICAO NAME COUNTRY WIND Kt GUST Kt VIS m TEMP/DEW C BARO METAR
DTTX Sfax El-Maou Tunisia 10 24 5000 -45/-52 29.50 DTTX 221000Z 20010G24KT 160V250 5000 SCT030 M45/M52 Q0999 NOSIG
CYUS Shepherd Bay, N. W. T. Canada 7 15 9999 -32/-36 30.10 CYUS 221000Z AUTO VRB07G15KT ////SM //// NCD M32/M36 A3010
CXRB 12 0 9999 -30/-33 29.92 CXRB 221000Z AUTO 32012KT M30/M33 RMK AO1 SOG 03 8002 SLP133 T12991330
CWRF Pelly Bay 1 Canada 13 0 9999 -30/0 29.85 CWRF 221000Z AUTO 33013KT M30/ A2985 RMK SLP165
CYRB Resolute, N. W. T. Canada 16 0 16000 -29/-32 29.92 CYRB 220947Z 31016KT 10SM IC FEW061 M29/M32 A2992 RMK SC1 SLP147

Show more